Langlois, OR (97450)

10:05 AM PST on January 26, 2015 (GMT -0800)
RAWS LONG PRAIRIE OR US | Change Station
CLOSE
Current Station
Personal Weather Station
Location: Broadbent, OR
Elevation: 1092 ft
Nearby Weather Stations

Elev 1092 ft 42.95 °N, 124.22 °W | Updated 52 minutes ago

Clear
Clear
53 °F
Feels Like 53 °F
N
6
Wind Variable Wind from NNW
Gusts 7.0 mph

Today
High -- | Low -- °F
--% Chance of Precip.
Yesterday
High -- | Low -- °F
Precip. -- in
7:38 AM 5:22 PM
Waxing Crescent, 45% visible
Pressure 30.04 in
Visibility 10.0 miles
Clouds Clear
Dew Point 45 °F
Humidity 73%
Rainfall 0.00 in
Snow Depth Not available.
UV 1 out of 12
Pollen 4.70 out of 12
Air Quality Not available.
Flu Activity Not available.
METAR KOTH 261755Z 00000KT 10SM CLR 11/11 A3004 RMK AO1 10110 20070 52010

More Conditions Fewer Conditions

Pressure 30.04 in
Visibility 10.0 miles
Clouds Clear
Dew Point 45 °F
Humidity 73%
Rainfall 0.00 in
Snow Depth Not available.
UV 1 out of 12
Pollen 4.70 out of 12
Air Quality Not available.
Flu Activity Not available.
METAR KOTH 261755Z 00000KT 10SM CLR 11/11 A3004 RMK AO1 10110 20070 52010

More Conditions Fewer Conditions

10-Day Weather Forecast

Almanac

Astronomy

Jan. 26, 2015 Rise Set
Actual Time
Civil Twilight
Nautical Twilight
Astronomical Twilight
Moon
Length of Visible Light
Length of Day
Tomorrow will be .
, % of the Moon is Illuminated

Today's Extremes

State Highs State Lows

Community

WunderPhotos

Upload Photos

1,790,304 photos uploaded!

WunderBlogs® & News

Nearby

Air Quality

  Air Quality AQ Index Pollutant
Not available.

Snow Depth

Station Depth Elevation

Earthquake Activity

City Distance Mag. Time & Date
Minimum magnitude displayed is 2.5.

Coastal Water Temperatures

Place Temperature

Nearby Weather Stations